createdAt,value
2022-12-25T00:01:48.225Z,5.44
2022-12-25T00:04:14.881Z,5.26
2022-12-25T00:06:41.366Z,5.37
2022-12-25T00:09:07.687Z,5.32
2022-12-25T00:11:34.073Z,5.22
2022-12-25T00:14:00.401Z,5.03
2022-12-25T00:16:26.859Z,4.99
2022-12-25T00:18:53.721Z,4.99
2022-12-25T00:21:20.714Z,4.83
2022-12-25T00:23:47.384Z,4.60
2022-12-25T00:26:17.338Z,4.52
2022-12-25T00:28:44.045Z,4.63
2022-12-25T00:31:11.860Z,4.40
2022-12-25T00:33:39.854Z,4.29
2022-12-25T00:36:06.749Z,4.14
2022-12-25T00:38:33.682Z,3.93
2022-12-25T00:41:00.087Z,3.92
2022-12-25T00:43:26.430Z,3.91
2022-12-25T00:46:00.210Z,3.85
2022-12-25T00:48:27.431Z,3.72
2022-12-25T00:51:13.737Z,3.78
2022-12-25T00:53:40.087Z,3.56
2022-12-25T00:56:07.296Z,3.50
2022-12-25T00:58:34.609Z,3.57
2022-12-25T01:01:02.776Z,3.45
2022-12-25T01:03:29.502Z,3.54
2022-12-25T01:05:59.883Z,3.44
2022-12-25T01:08:27.322Z,3.22
2022-12-25T01:10:54.448Z,3.16
2022-12-25T01:13:20.830Z,3.03
2022-12-25T01:15:47.195Z,3.01
2022-12-25T01:18:13.540Z,3.05
2022-12-25T01:20:41.839Z,2.71
2022-12-25T01:23:08.251Z,2.92
2022-12-25T01:25:34.664Z,2.81
2022-12-25T01:28:01.031Z,2.97
2022-12-25T01:30:27.441Z,2.91
2022-12-25T01:32:53.826Z,2.83
2022-12-25T01:35:20.145Z,2.75
2022-12-25T01:37:46.532Z,2.71
2022-12-25T01:40:12.946Z,2.65
2022-12-25T01:42:39.326Z,2.42
2022-12-25T01:45:32.254Z,2.51
2022-12-25T01:47:59.174Z,2.62
2022-12-25T01:50:25.712Z,2.61
2022-12-25T01:52:52.341Z,2.67
2022-12-25T01:55:18.731Z,2.59
2022-12-25T01:57:45.404Z,2.60
2022-12-25T02:00:12.499Z,2.52
2022-12-25T02:02:39.914Z,2.32
2022-12-25T02:05:15.904Z,2.16
2022-12-25T02:07:42.944Z,2.26
2022-12-25T02:10:10.345Z,2.04
2022-12-25T02:12:37.347Z,1.86
2022-12-25T02:15:09.652Z,1.89
2022-12-25T02:17:55.742Z,1.98
2022-12-25T02:20:41.161Z,1.89
2022-12-25T02:23:13.444Z,1.96
2022-12-25T02:25:53.322Z,1.85
2022-12-25T02:28:28.253Z,1.65
2022-12-25T02:31:14.884Z,1.68
2022-12-25T02:34:03.027Z,1.74
2022-12-25T02:36:42.294Z,1.75
2022-12-25T02:39:31.879Z,1.49
2022-12-25T02:42:01.707Z,1.52
2022-12-25T02:44:47.461Z,1.59
2022-12-25T02:47:32.998Z,1.47
2022-12-25T02:50:18.721Z,1.30
2022-12-25T02:53:04.633Z,1.29
2022-12-25T02:55:52.182Z,1.40
2022-12-25T02:58:40.546Z,1.24
2022-12-25T03:01:33.691Z,1.17
2022-12-25T03:04:20.897Z,1.33
2022-12-25T03:07:05.665Z,1.19
2022-12-25T03:09:54.191Z,1.07
2022-12-25T03:12:25.044Z,1.04
2022-12-25T03:15:10.111Z,0.90
2022-12-25T03:17:36.741Z,1.00
2022-12-25T03:20:22.272Z,0.80
2022-12-25T03:23:07.794Z,0.87
2022-12-25T03:25:52.638Z,0.77
2022-12-25T03:28:19.021Z,0.70
2022-12-25T03:31:12.928Z,0.79
2022-12-25T03:34:11.653Z,0.85
2022-12-25T03:37:11.557Z,0.77
2022-12-25T03:39:58.112Z,0.65
2022-12-25T03:42:48.899Z,0.71
2022-12-25T03:45:46.424Z,0.86
2022-12-25T03:48:13.418Z,0.61
2022-12-25T03:51:06.593Z,0.70
2022-12-25T03:53:57.940Z,0.74
2022-12-25T03:56:44.166Z,0.66
2022-12-25T03:59:29.108Z,0.53
2022-12-25T04:02:14.382Z,0.57
2022-12-25T04:04:59.525Z,0.66
2022-12-25T04:07:44.625Z,0.59
2022-12-25T04:10:29.386Z,0.71
2022-12-25T04:13:14.375Z,0.42
2022-12-25T04:15:59.303Z,0.49
2022-12-25T04:18:44.015Z,0.54
2022-12-25T04:21:29.072Z,0.78
2022-12-25T04:24:14.454Z,0.57
2022-12-25T04:26:59.419Z,0.57
2022-12-25T04:29:44.448Z,0.63
2022-12-25T04:32:29.265Z,0.53
2022-12-25T04:35:14.388Z,0.79
2022-12-25T04:37:40.785Z,0.62
2022-12-25T04:40:07.601Z,0.64
2022-12-25T04:42:34.023Z,0.48
2022-12-25T04:45:00.384Z,0.24
2022-12-25T04:47:26.761Z,0.53
2022-12-25T04:49:53.187Z,0.55
2022-12-25T04:52:19.496Z,0.40
2022-12-25T04:54:45.857Z,0.40
2022-12-25T04:57:12.275Z,0.36
2022-12-25T04:59:38.641Z,0.54
2022-12-25T05:02:05.000Z,0.57
2022-12-25T05:04:31.410Z,0.31
2022-12-25T05:06:57.737Z,0.19
2022-12-25T05:09:25.280Z,0.37
2022-12-25T05:11:51.655Z,0.42
2022-12-25T05:14:18.080Z,0.38
2022-12-25T05:16:44.540Z,0.59
2022-12-25T05:19:10.893Z,0.61
2022-12-25T05:21:37.218Z,0.42
2022-12-25T05:24:03.706Z,0.39
2022-12-25T05:26:30.067Z,0.20
2022-12-25T05:28:56.570Z,0.46
2022-12-25T05:31:23.013Z,0.36
2022-12-25T05:33:50.348Z,0.25
2022-12-25T05:36:17.017Z,0.35
2022-12-25T05:38:43.345Z,0.16
2022-12-25T05:41:09.891Z,0.22
2022-12-25T05:43:36.249Z,0.18
2022-12-25T05:46:07.072Z,0.31
2022-12-25T05:48:34.609Z,0.55
2022-12-25T05:51:05.039Z,0.43
2022-12-25T05:53:31.445Z,0.61
2022-12-25T05:56:00.228Z,0.15
2022-12-25T05:58:26.568Z,0.19
2022-12-25T06:00:52.896Z,0.10
2022-12-25T06:03:19.374Z,0.21
2022-12-25T06:05:45.744Z,0.25
2022-12-25T06:08:12.161Z,0.37
2022-12-25T06:10:38.548Z,0.36
2022-12-25T06:13:04.943Z,0.21
2022-12-25T06:15:31.306Z,0.20
2022-12-25T06:17:59.839Z,0.37
2022-12-25T06:20:26.155Z,0.29
2022-12-25T06:22:52.540Z,0.10
2022-12-25T06:25:19.117Z,0.19
2022-12-25T06:27:45.465Z,0.26
2022-12-25T06:30:11.976Z,0.37
2022-12-25T06:32:38.376Z,0.14
2022-12-25T06:35:04.928Z,0.20
2022-12-25T06:37:31.552Z,0.33
2022-12-25T06:39:57.920Z,0.17
2022-12-25T06:42:24.327Z,0.27
2022-12-25T06:44:51.140Z,0.37
2022-12-25T06:47:17.503Z,0.16
2022-12-25T06:49:43.849Z,0.11
2022-12-25T06:52:10.186Z,0.03
2022-12-25T06:54:36.509Z,0.01
2022-12-25T06:57:02.893Z,-0.02
2022-12-25T06:59:29.247Z,0.07
2022-12-25T07:01:56.885Z,0.23
2022-12-25T07:04:36.775Z,0.12
2022-12-25T07:07:08.357Z,0.05
2022-12-25T07:09:35.978Z,0.07
2022-12-25T07:12:04.142Z,0.07
2022-12-25T07:14:30.629Z,-0.01
2022-12-25T07:16:57.017Z,0.01
2022-12-25T07:19:23.566Z,0.28
2022-12-25T07:21:49.917Z,-0.09
2022-12-25T07:24:20.232Z,-0.14
2022-12-25T07:26:46.567Z,0.20
2022-12-25T07:29:12.913Z,0.06
2022-12-25T07:31:39.356Z,0.00
2022-12-25T07:34:05.793Z,0.23
2022-12-25T07:36:32.294Z,0.04
2022-12-25T07:38:58.868Z,0.08
2022-12-25T07:41:25.327Z,0.23
2022-12-25T07:43:52.987Z,0.30
2022-12-25T07:46:22.891Z,0.44
2022-12-25T07:48:49.787Z,0.19
2022-12-25T07:51:16.406Z,0.26
2022-12-25T07:53:42.838Z,0.30
2022-12-25T07:56:13.646Z,0.57
2022-12-25T07:58:40.212Z,0.52
2022-12-25T08:01:08.040Z,0.38
2022-12-25T08:03:35.027Z,0.62
2022-12-25T08:06:02.444Z,0.31
2022-12-25T08:08:29.033Z,0.30
2022-12-25T08:10:55.452Z,0.45
2022-12-25T08:13:21.842Z,0.90
2022-12-25T08:15:48.283Z,0.98
2022-12-25T08:18:15.003Z,1.00
2022-12-25T08:20:41.431Z,0.79
2022-12-25T08:23:07.926Z,0.86
2022-12-25T08:25:34.923Z,0.68
2022-12-25T08:28:01.701Z,0.83
2022-12-25T08:30:28.418Z,1.00
2022-12-25T08:32:54.910Z,1.11
2022-12-25T08:35:21.652Z,0.97
2022-12-25T08:37:51.245Z,0.94
2022-12-25T08:40:17.714Z,1.19
2022-12-25T08:42:44.103Z,1.15
2022-12-25T08:45:10.901Z,1.19
2022-12-25T08:47:37.292Z,1.31
2022-12-25T08:50:07.305Z,1.33
2022-12-25T08:52:33.922Z,1.52
2022-12-25T08:55:00.375Z,1.75
2022-12-25T08:57:26.886Z,1.83
2022-12-25T08:59:53.341Z,1.92
2022-12-25T09:02:19.945Z,2.28
2022-12-25T09:04:46.785Z,2.17
2022-12-25T09:07:13.250Z,2.20
2022-12-25T09:09:40.028Z,2.31
2022-12-25T09:12:08.925Z,2.56
2022-12-25T09:14:38.162Z,2.30
2022-12-25T09:17:06.819Z,2.49
2022-12-25T09:19:34.488Z,2.70
2022-12-25T09:22:02.764Z,2.87
2022-12-25T09:24:31.565Z,3.10
2022-12-25T09:26:58.177Z,3.20
2022-12-25T09:29:28.316Z,3.18
2022-12-25T09:31:58.954Z,3.35
2022-12-25T09:34:25.766Z,3.31
2022-12-25T09:36:54.912Z,3.45
2022-12-25T09:39:21.575Z,3.57
2022-12-25T09:42:12.731Z,3.48
2022-12-25T09:44:50.402Z,3.44
2022-12-25T09:47:20.734Z,3.72
2022-12-25T09:50:07.089Z,3.81
2022-12-25T09:52:41.964Z,3.96
2022-12-25T09:55:20.500Z,4.14
2022-12-25T09:57:55.441Z,3.81
2022-12-25T10:00:27.403Z,4.10
2022-12-25T10:03:12.884Z,3.97
2022-12-25T10:06:09.017Z,4.14
2022-12-25T10:09:05.935Z,4.21
2022-12-25T10:11:37.591Z,4.43
2022-12-25T10:14:23.887Z,4.62
2022-12-25T10:17:02.495Z,4.41
2022-12-25T10:19:38.139Z,4.49
2022-12-25T10:22:10.669Z,4.68
2022-12-25T10:24:44.566Z,4.57
2022-12-25T10:27:18.011Z,4.70
2022-12-25T10:29:47.669Z,4.56
2022-12-25T10:32:14.220Z,4.43
2022-12-25T10:34:41.873Z,4.59
2022-12-25T10:37:09.958Z,4.57
2022-12-25T10:39:39.701Z,4.56
2022-12-25T10:42:10.855Z,4.59
2022-12-25T10:44:37.529Z,4.66
2022-12-25T10:47:04.550Z,4.75
2022-12-25T10:49:38.538Z,4.76
2022-12-25T10:52:18.913Z,4.70
2022-12-25T10:54:45.388Z,4.62
2022-12-25T10:57:17.362Z,4.48
2022-12-25T10:59:45.391Z,4.49
2022-12-25T11:02:18.775Z,4.46
2022-12-25T11:04:45.714Z,4.53
2022-12-25T11:07:21.311Z,4.77
2022-12-25T11:09:59.343Z,4.66
2022-12-25T11:12:37.070Z,4.92
2022-12-25T11:15:06.890Z,4.96
2022-12-25T11:17:33.431Z,4.94
2022-12-25T11:20:01.185Z,4.89
2022-12-25T11:22:29.185Z,4.78
2022-12-25T11:24:55.699Z,4.94
2022-12-25T11:27:29.239Z,5.01
2022-12-25T11:30:01.928Z,4.86
2022-12-25T11:32:30.637Z,4.94
2022-12-25T11:34:58.661Z,4.89
2022-12-25T11:37:36.531Z,4.72
2022-12-25T11:40:04.136Z,4.54
2022-12-25T11:42:35.485Z,4.68
2022-12-25T11:45:21.344Z,4.67
2022-12-25T11:47:57.485Z,4.66
2022-12-25T11:50:38.443Z,4.61
2022-12-25T11:53:10.081Z,4.51
2022-12-25T11:56:15.289Z,4.36
2022-12-25T11:59:00.754Z,4.26
2022-12-25T12:01:37.262Z,4.43
2022-12-25T12:04:07.676Z,4.57
2022-12-25T12:06:52.180Z,4.59
2022-12-25T12:09:37.643Z,4.47
2022-12-25T12:12:07.430Z,4.47
2022-12-25T12:14:57.250Z,4.32
2022-12-25T12:17:29.681Z,4.13
2022-12-25T12:20:24.282Z,4.34
2022-12-25T12:22:51.435Z,4.46
2022-12-25T12:25:18.500Z,4.60
2022-12-25T12:27:45.208Z,4.48
2022-12-25T12:30:23.430Z,4.67
2022-12-25T12:32:52.587Z,4.60
2022-12-25T12:35:24.138Z,4.47
2022-12-25T12:37:53.329Z,4.45
2022-12-25T12:40:25.722Z,4.61
2022-12-25T12:42:52.425Z,4.75
2022-12-25T12:45:47.358Z,4.74
2022-12-25T12:48:14.544Z,4.45
2022-12-25T12:50:41.713Z,4.45
2022-12-25T12:53:26.665Z,4.58
2022-12-25T12:55:53.599Z,4.62
2022-12-25T12:58:36.163Z,4.52
2022-12-25T13:01:18.069Z,4.44
2022-12-25T13:04:00.239Z,4.50
2022-12-25T13:06:45.241Z,4.48
2022-12-25T13:09:33.052Z,4.59
2022-12-25T13:11:59.983Z,4.56
2022-12-25T13:14:26.414Z,4.57
2022-12-25T13:16:54.231Z,4.47
2022-12-25T13:19:22.265Z,4.64
2022-12-25T13:21:59.316Z,4.67
2022-12-25T13:24:27.052Z,4.59
2022-12-25T13:26:53.678Z,4.71
2022-12-25T13:29:28.173Z,4.84
2022-12-25T13:31:54.892Z,4.64
2022-12-25T13:34:38.375Z,4.63
2022-12-25T13:37:14.209Z,4.71
2022-12-25T13:39:55.988Z,4.54
2022-12-25T13:42:27.379Z,4.58
2022-12-25T13:44:55.277Z,4.62
2022-12-25T13:47:49.950Z,4.72
2022-12-25T13:50:28.469Z,4.67
2022-12-25T13:52:58.116Z,4.77
2022-12-25T13:55:24.814Z,4.79
2022-12-25T13:58:10.666Z,4.70
2022-12-25T14:00:53.143Z,4.65
2022-12-25T14:03:31.199Z,4.65
2022-12-25T14:06:05.374Z,4.67
2022-12-25T14:08:39.700Z,4.56
2022-12-25T14:11:07.955Z,4.54
2022-12-25T14:13:40.303Z,4.54
2022-12-25T14:16:27.499Z,4.51
2022-12-25T14:18:55.590Z,4.56
2022-12-25T14:21:38.584Z,4.57
2022-12-25T14:24:12.888Z,4.41
2022-12-25T14:26:50.522Z,4.44
2022-12-25T14:29:26.592Z,4.51
2022-12-25T14:31:57.254Z,4.59
2022-12-25T14:34:24.585Z,4.77
2022-12-25T14:36:52.196Z,4.62
2022-12-25T14:39:26.396Z,4.66
2022-12-25T14:41:53.910Z,4.55
2022-12-25T14:44:32.427Z,4.37
2022-12-25T14:47:04.980Z,4.47
2022-12-25T14:49:31.798Z,4.48
2022-12-25T14:51:58.735Z,4.44
2022-12-25T14:54:26.012Z,4.34
2022-12-25T14:56:54.020Z,4.44
2022-12-25T14:59:26.962Z,4.43
2022-12-25T15:01:56.248Z,4.60
2022-12-25T15:04:23.891Z,4.43
2022-12-25T15:07:01.879Z,4.40
2022-12-25T15:09:30.228Z,4.28
2022-12-25T15:11:57.006Z,4.29
2022-12-25T15:14:24.090Z,4.42
2022-12-25T15:16:54.200Z,4.51
2022-12-25T15:19:26.515Z,4.53
2022-12-25T15:21:54.053Z,4.64
2022-12-25T15:24:20.476Z,4.59
2022-12-25T15:26:47.123Z,4.53
2022-12-25T15:29:14.948Z,4.66
2022-12-25T15:31:42.200Z,4.73
2022-12-25T15:34:20.484Z,4.67
2022-12-25T15:36:51.619Z,4.61
2022-12-25T15:39:18.018Z,4.64
2022-12-25T15:42:05.703Z,4.56
2022-12-25T15:44:32.138Z,4.74
2022-12-25T15:46:58.841Z,4.78
2022-12-25T15:49:31.090Z,4.82
2022-12-25T15:52:00.135Z,4.81
2022-12-25T15:54:26.670Z,4.99
2022-12-25T15:56:55.130Z,4.88
2022-12-25T15:59:21.980Z,4.77
2022-12-25T16:01:51.111Z,4.98
2022-12-25T16:04:17.933Z,5.07
2022-12-25T16:06:44.283Z,5.03
2022-12-25T16:09:11.614Z,5.03
2022-12-25T16:11:38.069Z,5.06
2022-12-25T16:14:07.315Z,5.02
2022-12-25T16:16:33.957Z,5.10
2022-12-25T16:19:00.388Z,5.16
2022-12-25T16:21:27.081Z,5.11
2022-12-25T16:23:53.411Z,5.09
2022-12-25T16:26:19.771Z,5.19
2022-12-25T16:28:46.363Z,5.17
2022-12-25T16:31:12.764Z,5.18
2022-12-25T16:33:39.178Z,5.32
2022-12-25T16:36:05.650Z,5.21
2022-12-25T16:38:32.053Z,5.23
2022-12-25T16:40:59.566Z,5.30
2022-12-25T16:43:26.158Z,5.32
2022-12-25T16:45:52.815Z,5.35
2022-12-25T16:48:19.330Z,5.41
2022-12-25T16:50:45.811Z,5.31
2022-12-25T16:53:12.604Z,5.43
2022-12-25T16:55:39.246Z,5.47
2022-12-25T16:58:06.521Z,5.45
2022-12-25T17:00:32.898Z,5.53
2022-12-25T17:03:00.248Z,5.57
2022-12-25T17:05:26.698Z,5.54
2022-12-25T17:07:53.102Z,5.61
2022-12-25T17:10:19.823Z,5.67
2022-12-25T17:12:46.229Z,5.70
2022-12-25T17:15:12.714Z,5.64
2022-12-25T17:17:39.129Z,5.60
2022-12-25T17:20:06.023Z,5.62
2022-12-25T17:22:32.859Z,5.62
2022-12-25T17:24:59.431Z,5.63
2022-12-25T17:27:26.499Z,5.73
2022-12-25T17:29:52.841Z,5.69
2022-12-25T17:32:19.275Z,5.75
2022-12-25T17:35:03.786Z,5.79
2022-12-25T17:37:40.849Z,5.72
2022-12-25T17:42:54.081Z,5.81
2022-12-25T17:45:43.446Z,5.83
2022-12-25T17:48:22.151Z,5.86
2022-12-25T17:54:00.507Z,5.79
2022-12-25T17:56:27.028Z,5.86
2022-12-25T17:59:06.901Z,5.79
2022-12-25T18:04:44.008Z,5.79
2022-12-25T18:07:18.870Z,5.72
2022-12-25T18:09:49.962Z,5.89
2022-12-25T18:12:16.488Z,6.02
2022-12-25T18:14:43.144Z,5.94
2022-12-25T18:17:09.590Z,5.86
2022-12-25T18:19:36.275Z,5.91
2022-12-25T18:22:02.627Z,5.83
2022-12-25T18:24:29.055Z,5.87
2022-12-25T18:26:55.425Z,5.89
2022-12-25T18:29:21.772Z,5.80
2022-12-25T18:31:48.423Z,5.98
2022-12-25T18:34:14.941Z,6.03
2022-12-25T18:36:41.361Z,5.99
2022-12-25T18:39:07.775Z,6.07
2022-12-25T18:41:54.150Z,6.02
2022-12-25T18:44:20.513Z,5.97
2022-12-25T18:47:30.275Z,5.99
2022-12-25T18:49:56.629Z,6.05
2022-12-25T18:52:49.976Z,5.93
2022-12-25T18:55:09.655Z,6.03
2022-12-25T18:57:35.999Z,6.10
2022-12-25T19:00:03.171Z,6.09
2022-12-25T19:02:29.964Z,6.11
2022-12-25T19:04:56.522Z,6.06
2022-12-25T19:07:23.064Z,6.09
2022-12-25T19:09:49.869Z,6.13
2022-12-25T19:12:20.031Z,6.14
2022-12-25T19:14:47.181Z,6.10
2022-12-25T19:17:18.941Z,6.20
2022-12-25T19:19:45.945Z,6.26
2022-12-25T19:22:12.502Z,6.33
2022-12-25T19:24:38.886Z,6.26
2022-12-25T19:27:05.300Z,6.27
2022-12-25T19:29:31.710Z,6.34
2022-12-25T19:31:58.220Z,6.36
2022-12-25T19:34:24.598Z,6.43
2022-12-25T19:36:51.359Z,6.25
2022-12-25T19:39:30.104Z,6.25
2022-12-25T19:41:56.518Z,6.32
2022-12-25T19:44:23.156Z,6.31
2022-12-25T19:46:50.761Z,6.28
2022-12-25T19:49:17.253Z,6.37
2022-12-25T19:51:44.746Z,6.45
2022-12-25T19:54:12.220Z,6.38
2022-12-25T19:56:38.616Z,6.39
2022-12-25T19:59:05.158Z,6.07
2022-12-25T20:01:31.861Z,6.25
2022-12-25T20:04:01.330Z,6.37
2022-12-25T20:06:29.438Z,6.16
2022-12-25T20:08:57.319Z,6.17
2022-12-25T20:11:25.595Z,6.39
2022-12-25T20:13:52.277Z,6.39
2022-12-25T20:16:22.260Z,6.42
2022-12-25T20:18:48.789Z,6.55
2022-12-25T20:21:16.595Z,6.45
2022-12-25T20:23:43.852Z,6.41
2022-12-25T20:26:10.643Z,6.47
2022-12-25T20:28:37.376Z,6.51
2022-12-25T20:31:12.402Z,6.55
2022-12-25T20:33:38.950Z,6.68
2022-12-25T20:36:06.039Z,6.67
2022-12-25T20:38:32.719Z,6.46
2022-12-25T20:41:26.143Z,6.48
2022-12-25T20:43:47.646Z,6.31
2022-12-25T20:46:14.842Z,6.54
2022-12-25T20:48:42.107Z,6.59
2022-12-25T20:51:10.269Z,6.64
2022-12-25T20:53:37.494Z,6.78
2022-12-25T20:56:06.586Z,6.65
2022-12-25T20:58:33.073Z,6.58
2022-12-25T21:01:03.449Z,6.65
2022-12-25T21:03:32.531Z,6.65
2022-12-25T21:06:02.575Z,6.84
2022-12-25T21:08:29.712Z,6.72
2022-12-25T21:11:25.873Z,6.81
2022-12-25T21:13:55.554Z,6.95
2022-12-25T21:19:25.675Z,6.72
2022-12-25T21:21:54.914Z,6.81
2022-12-25T21:24:24.280Z,6.84
2022-12-25T21:26:53.758Z,6.66
2022-12-25T21:32:29.473Z,6.77
2022-12-25T21:34:56.309Z,6.70
2022-12-25T21:37:31.212Z,6.79
2022-12-25T21:40:03.399Z,6.85
2022-12-25T21:43:11.783Z,6.93
2022-12-25T21:48:58.965Z,6.83
2022-12-25T21:51:53.243Z,7.02
2022-12-25T21:54:31.983Z,6.93
2022-12-25T21:57:10.854Z,6.84
2022-12-25T21:59:38.692Z,6.97
2022-12-25T22:02:13.731Z,7.10
2022-12-25T22:04:42.710Z,6.99
2022-12-25T22:07:18.311Z,7.03
2022-12-25T22:09:49.741Z,7.01
2022-12-25T22:12:39.281Z,7.04
2022-12-25T22:15:07.135Z,7.12
2022-12-25T22:17:55.881Z,7.02
2022-12-25T22:20:24.378Z,7.15
2022-12-25T22:22:51.058Z,7.15
2022-12-25T22:25:17.822Z,7.20
2022-12-25T22:27:46.641Z,7.20
2022-12-25T22:30:15.403Z,7.31
2022-12-25T22:32:42.087Z,7.26
2022-12-25T22:35:09.147Z,7.33
2022-12-25T22:37:36.362Z,7.24
2022-12-25T22:40:04.153Z,7.13
2022-12-25T22:42:30.727Z,7.13
2022-12-25T22:44:57.158Z,7.15
2022-12-25T22:47:23.551Z,7.16
2022-12-25T22:49:49.939Z,7.23
2022-12-25T22:52:16.509Z,7.24
2022-12-25T22:54:42.908Z,7.28
2022-12-25T22:57:09.361Z,7.28
2022-12-25T22:59:35.785Z,7.32
2022-12-25T23:02:02.262Z,7.29
2022-12-25T23:04:28.902Z,7.58
2022-12-25T23:06:55.395Z,7.47
2022-12-25T23:09:24.900Z,7.31
2022-12-25T23:11:51.544Z,7.37
2022-12-25T23:14:36.665Z,7.16
2022-12-25T23:17:03.074Z,7.30
2022-12-25T23:19:47.930Z,7.37
2022-12-25T23:22:33.131Z,7.45
2022-12-25T23:25:18.358Z,7.53
2022-12-25T23:27:45.150Z,7.52
2022-12-25T23:30:12.557Z,7.50
2022-12-25T23:32:39.395Z,7.59
2022-12-25T23:35:06.153Z,7.72
2022-12-25T23:37:32.600Z,7.65
2022-12-25T23:39:58.954Z,7.73
2022-12-25T23:42:25.426Z,7.64
2022-12-25T23:44:51.849Z,7.79
2022-12-25T23:47:18.290Z,7.58
2022-12-25T23:49:44.876Z,7.57
2022-12-25T23:52:12.301Z,7.54
2022-12-25T23:54:38.758Z,7.56
2022-12-25T23:57:05.717Z,7.70
2022-12-25T23:59:32.124Z,7.65
